createdAt,value
2022-10-21T00:03:04.494Z,2.76
2022-10-21T00:08:26.646Z,2.95
2022-10-21T00:13:48.917Z,2.43
2022-10-21T00:19:11.228Z,2.93
2022-10-21T00:24:33.934Z,2.92
2022-10-21T00:29:55.668Z,2.90
2022-10-21T00:35:18.006Z,2.86
2022-10-21T00:40:40.226Z,2.84
2022-10-21T00:46:08.406Z,2.78
2022-10-21T00:51:31.893Z,2.84
2022-10-21T00:56:57.190Z,2.81
2022-10-21T01:02:19.133Z,2.76
2022-10-21T01:07:43.670Z,2.79
2022-10-21T01:13:17.846Z,2.80
2022-10-21T01:19:13.727Z,2.76
2022-10-21T01:24:54.442Z,2.68
2022-10-21T01:30:29.811Z,2.68
2022-10-21T01:36:25.716Z,2.73
2022-10-21T01:41:52.490Z,2.72
2022-10-21T01:47:25.177Z,2.54
2022-10-21T01:52:52.148Z,2.60
2022-10-21T01:58:21.166Z,2.39
2022-10-21T02:03:47.448Z,2.74
2022-10-21T02:09:09.407Z,2.53
2022-10-21T02:14:44.867Z,2.23
2022-10-21T02:20:10.440Z,2.32
2022-10-21T02:25:38.169Z,2.57
2022-10-21T02:31:14.765Z,2.52
2022-10-21T02:37:10.076Z,2.41
2022-10-21T02:42:37.110Z,2.53
2022-10-21T02:48:02.149Z,2.69
2022-10-21T02:53:24.027Z,2.51
2022-10-21T02:58:46.650Z,2.72
2022-10-21T03:04:09.027Z,2.41
2022-10-21T03:09:31.397Z,2.61
2022-10-21T03:14:53.655Z,2.93
2022-10-21T03:20:16.031Z,2.84
2022-10-21T03:25:37.728Z,2.89
2022-10-21T03:30:59.734Z,2.88
2022-10-21T03:36:21.763Z,2.85
2022-10-21T03:41:44.309Z,2.76
2022-10-21T03:47:06.482Z,2.84
2022-10-21T03:52:28.615Z,2.76
2022-10-21T03:57:50.648Z,2.79
2022-10-21T04:03:12.833Z,2.91
2022-10-21T04:08:35.021Z,2.86
2022-10-21T04:13:57.746Z,2.42
2022-10-21T04:19:20.794Z,2.75
2022-10-21T04:24:43.047Z,2.41
2022-10-21T04:30:06.067Z,2.40
2022-10-21T04:35:28.771Z,2.47
2022-10-21T04:40:58.895Z,2.90
2022-10-21T04:46:22.050Z,2.66
2022-10-21T04:51:44.356Z,2.72
2022-10-21T04:57:06.794Z,2.93
2022-10-21T05:02:28.929Z,2.55
2022-10-21T05:07:51.230Z,2.99
2022-10-21T05:13:13.516Z,3.10
2022-10-21T05:18:35.414Z,3.14
2022-10-21T05:23:57.606Z,3.19
2022-10-21T05:29:19.867Z,3.26
2022-10-21T05:34:41.568Z,3.28
2022-10-21T05:40:05.047Z,3.42
2022-10-21T05:45:27.673Z,3.41
2022-10-21T05:50:53.842Z,3.47
2022-10-21T05:56:15.469Z,3.44
2022-10-21T06:01:37.636Z,3.58
2022-10-21T06:06:59.846Z,3.79
2022-10-21T06:12:24.848Z,3.91
2022-10-21T06:17:47.108Z,3.66
2022-10-21T06:23:18.388Z,3.85
2022-10-21T06:28:42.527Z,3.72
2022-10-21T06:34:05.123Z,3.67
2022-10-21T06:39:27.912Z,3.87
2022-10-21T06:44:50.371Z,4.40
2022-10-21T06:50:14.419Z,4.43
2022-10-21T06:55:37.287Z,4.17
2022-10-21T07:00:59.797Z,4.35
2022-10-21T07:06:22.792Z,4.26
2022-10-21T07:11:45.398Z,4.55
2022-10-21T07:17:07.754Z,5.09
2022-10-21T07:22:29.811Z,5.24
2022-10-21T07:27:51.803Z,5.33
2022-10-21T07:33:13.788Z,5.33
2022-10-21T07:38:36.516Z,5.29
2022-10-21T07:43:58.833Z,5.27
2022-10-21T07:49:22.428Z,5.24
2022-10-21T07:54:44.577Z,5.21
2022-10-21T08:00:09.168Z,5.30
2022-10-21T08:05:42.426Z,5.38
2022-10-21T08:11:05.041Z,5.47
2022-10-21T08:16:27.650Z,5.58
2022-10-21T08:21:50.471Z,5.66
2022-10-21T08:27:12.487Z,5.71
2022-10-21T08:32:34.448Z,5.57
2022-10-21T08:37:56.697Z,5.50
2022-10-21T08:43:28.509Z,5.43
2022-10-21T08:49:08.517Z,5.59
2022-10-21T08:54:45.736Z,5.56
2022-10-21T09:00:24.130Z,5.50
2022-10-21T09:06:16.068Z,5.55
2022-10-21T09:11:51.357Z,5.52
2022-10-21T09:17:28.148Z,5.49
2022-10-21T09:23:04.246Z,5.61
2022-10-21T09:28:27.707Z,5.54
2022-10-21T09:33:57.168Z,5.50
2022-10-21T09:39:31.010Z,5.60
2022-10-21T09:44:53.050Z,5.79
2022-10-21T09:50:17.870Z,5.76
2022-10-21T09:55:41.047Z,5.61
2022-10-21T10:01:03.029Z,5.76
2022-10-21T10:06:35.310Z,6.09
2022-10-21T10:12:02.428Z,6.32
2022-10-21T10:17:39.227Z,6.49
2022-10-21T10:23:00.851Z,6.60
2022-10-21T10:28:26.334Z,6.61
2022-10-21T10:33:58.831Z,6.60
2022-10-21T10:39:31.109Z,6.68
2022-10-21T10:44:57.667Z,6.90
2022-10-21T10:50:47.386Z,7.18
2022-10-21T10:56:29.348Z,7.08
2022-10-21T11:02:02.921Z,6.78
2022-10-21T11:07:41.654Z,6.79
2022-10-21T11:13:11.046Z,6.40
2022-10-21T11:18:38.655Z,6.57
2022-10-21T11:24:32.167Z,6.51
2022-10-21T11:30:18.328Z,6.19
2022-10-21T11:36:05.586Z,6.26
2022-10-21T11:41:35.342Z,6.08
2022-10-21T11:47:22.902Z,6.28
2022-10-21T11:53:15.535Z,6.20
2022-10-21T11:58:56.347Z,6.25
2022-10-21T12:04:40.016Z,6.31
2022-10-21T12:10:33.207Z,5.79
2022-10-21T12:16:03.207Z,6.27
2022-10-21T12:21:35.984Z,6.24
2022-10-21T12:27:26.688Z,6.26
2022-10-21T12:33:15.378Z,6.27
2022-10-21T12:38:58.335Z,6.22
2022-10-21T12:44:29.895Z,6.21
2022-10-21T12:50:25.213Z,6.23
2022-10-21T12:55:54.097Z,6.19
2022-10-21T13:01:45.744Z,6.16
2022-10-21T13:07:16.710Z,6.14
2022-10-21T13:12:39.534Z,5.72
2022-10-21T13:18:03.037Z,5.73
2022-10-21T13:23:39.757Z,5.55
2022-10-21T13:29:06.556Z,5.43
2022-10-21T13:34:30.858Z,5.29
2022-10-21T13:39:55.589Z,5.69
2022-10-21T13:45:31.349Z,5.39
2022-10-21T13:50:54.423Z,4.95
2022-10-21T13:56:29.729Z,5.01
2022-10-21T14:01:54.877Z,4.78
2022-10-21T14:07:20.009Z,4.67
2022-10-21T14:18:00.406Z,4.98
2022-10-21T14:23:24.046Z,4.81
2022-10-21T14:28:48.348Z,4.84
2022-10-21T14:34:23.390Z,4.83
2022-10-21T14:39:45.828Z,4.77
2022-10-21T14:45:08.287Z,4.63
2022-10-21T14:50:30.368Z,4.72
2022-10-21T14:55:58.197Z,4.72
2022-10-21T15:01:22.616Z,4.62
2022-10-21T15:07:04.168Z,4.68
2022-10-21T15:12:27.780Z,4.59
2022-10-21T15:18:06.483Z,4.51
2022-10-21T15:23:49.736Z,4.26
2022-10-21T15:29:35.532Z,4.28
2022-10-21T15:34:59.957Z,4.07
2022-10-21T15:40:23.502Z,3.95
2022-10-21T15:45:47.277Z,4.01
2022-10-21T15:51:09.796Z,3.87
2022-10-21T15:56:32.117Z,3.99
2022-10-21T16:01:56.324Z,3.88
2022-10-21T16:07:33.775Z,3.84
2022-10-21T16:12:56.397Z,3.77
2022-10-21T16:18:19.917Z,4.03
2022-10-21T16:23:43.061Z,3.79
2022-10-21T16:29:25.216Z,3.69
2022-10-21T16:35:13.842Z,4.10
2022-10-21T16:40:36.268Z,3.98
2022-10-21T16:45:59.011Z,3.87
2022-10-21T16:51:24.149Z,3.71
2022-10-21T16:56:47.569Z,3.98
2022-10-21T17:02:19.819Z,3.72
2022-10-21T17:07:41.848Z,3.57
2022-10-21T17:13:04.636Z,3.87
2022-10-21T17:18:26.742Z,3.62
2022-10-21T17:23:50.831Z,3.65
2022-10-21T17:29:15.315Z,3.92
2022-10-21T17:34:39.361Z,3.91
2022-10-21T17:40:01.608Z,3.82
2022-10-21T17:45:28.574Z,3.63
2022-10-21T17:50:59.048Z,3.54
2022-10-21T17:56:23.206Z,3.38
2022-10-21T18:01:46.411Z,3.25
2022-10-21T18:07:09.759Z,3.21
2022-10-21T18:12:32.595Z,3.09
2022-10-21T18:17:54.943Z,3.04
2022-10-21T18:23:16.887Z,2.98
2022-10-21T18:28:38.907Z,2.98
2022-10-21T18:34:02.802Z,2.98
2022-10-21T18:39:25.090Z,2.95
2022-10-21T18:44:47.280Z,2.74
2022-10-21T18:50:11.451Z,2.51
2022-10-21T18:55:33.587Z,2.52
2022-10-21T19:00:55.602Z,2.46
2022-10-21T19:06:34.179Z,2.58
2022-10-21T19:11:56.369Z,2.67
2022-10-21T19:17:19.947Z,2.69
2022-10-21T19:22:42.129Z,2.83
2022-10-21T19:28:04.409Z,2.70
2022-10-21T19:33:26.635Z,2.67
2022-10-21T19:38:48.668Z,2.51
2022-10-21T19:44:10.668Z,2.81
2022-10-21T19:49:33.607Z,2.55
2022-10-21T19:54:55.809Z,2.86
2022-10-21T20:00:18.608Z,2.98
2022-10-21T20:05:41.649Z,3.10
2022-10-21T20:11:10.397Z,2.84
2022-10-21T20:16:35.971Z,3.13
2022-10-21T20:21:58.175Z,3.12
2022-10-21T20:27:20.888Z,3.04
2022-10-21T20:32:42.951Z,2.60
2022-10-21T20:38:05.488Z,2.85
2022-10-21T20:43:27.748Z,2.55
2022-10-21T20:48:52.135Z,2.50
2022-10-21T20:54:17.751Z,2.77
2022-10-21T20:59:42.799Z,2.54
2022-10-21T21:05:06.147Z,2.51
2022-10-21T21:10:28.174Z,2.47
2022-10-21T21:15:50.635Z,2.67
2022-10-21T21:21:15.587Z,2.72
2022-10-21T21:26:39.611Z,2.49
2022-10-21T21:32:01.919Z,2.64
2022-10-21T21:37:25.079Z,2.78
2022-10-21T21:42:46.971Z,2.80
2022-10-21T21:48:09.069Z,2.90
2022-10-21T21:53:31.146Z,2.90
2022-10-21T21:58:58.346Z,2.90
2022-10-21T22:04:20.555Z,2.83
2022-10-21T22:09:42.789Z,2.67
2022-10-21T22:15:05.215Z,2.45
2022-10-21T22:20:26.835Z,2.34
2022-10-21T22:25:51.166Z,2.48
2022-10-21T22:31:16.571Z,2.56
2022-10-21T22:36:38.629Z,2.58
2022-10-21T22:42:00.327Z,2.62
2022-10-21T22:47:24.028Z,2.59
2022-10-21T22:52:45.708Z,2.58
2022-10-21T22:58:08.059Z,2.41
2022-10-21T23:03:30.296Z,2.56
2022-10-21T23:08:52.381Z,2.36
2022-10-21T23:14:15.427Z,2.39
2022-10-21T23:19:37.097Z,2.26
2022-10-21T23:24:59.422Z,2.14
2022-10-21T23:30:21.664Z,1.55
2022-10-21T23:35:43.856Z,1.46
2022-10-21T23:41:08.749Z,1.47
2022-10-21T23:46:30.915Z,1.28
2022-10-21T23:51:53.584Z,0.86
2022-10-21T23:57:18.972Z,0.91
